createdAt,value
2023-10-31T00:00:25.525Z,99709.06
2023-10-31T00:02:53.822Z,99713.03
2023-10-31T00:05:22.250Z,99706.34
2023-10-31T00:07:50.508Z,99714.56
2023-10-31T00:10:18.827Z,99717.25
2023-10-31T00:12:47.046Z,99708.72
2023-10-31T00:15:15.450Z,99706.16
2023-10-31T00:17:44.090Z,99714.13
2023-10-31T00:20:12.482Z,99713.13
2023-10-31T00:22:40.725Z,99719.63
2023-10-31T00:25:09.081Z,99719.63
2023-10-31T00:27:37.252Z,99717.78
2023-10-31T00:30:06.050Z,99729.13
2023-10-31T00:32:34.293Z,99739.06
2023-10-31T00:35:02.930Z,99732.69
2023-10-31T00:37:31.543Z,99718.22
2023-10-31T00:39:59.717Z,99734.28
2023-10-31T00:42:28.184Z,99726.44
2023-10-31T00:44:56.409Z,99725.59
2023-10-31T00:47:24.659Z,99722.19
2023-10-31T00:49:54.408Z,99724.75
2023-10-31T00:52:22.649Z,99725.75
2023-10-31T00:54:51.073Z,99739.22
2023-10-31T00:57:19.275Z,99739.22
2023-10-31T00:59:47.476Z,99742.00
2023-10-31T01:02:15.757Z,99747.41
2023-10-31T01:04:44.076Z,99748.25
2023-10-31T01:07:13.610Z,99750.81
2023-10-31T01:09:41.856Z,99753.38
2023-10-31T01:12:11.556Z,99752.25
2023-10-31T01:14:39.830Z,99754.22
2023-10-31T01:17:08.420Z,99764.13
2023-10-31T01:19:36.811Z,99763.91
2023-10-31T01:22:05.244Z,99760.19
2023-10-31T01:24:33.540Z,99771.69
2023-10-31T01:27:01.771Z,99769.28
2023-10-31T01:29:29.981Z,99774.66
2023-10-31T01:32:01.318Z,99774.53
2023-10-31T01:34:31.729Z,99777.81
2023-10-31T01:36:59.954Z,99779.50
2023-10-31T01:39:28.659Z,99788.16
2023-10-31T01:41:56.854Z,99786.22
2023-10-31T01:44:26.033Z,99790.47
2023-10-31T01:46:54.277Z,99790.47
2023-10-31T01:49:23.171Z,99778.81
2023-10-31T01:51:51.570Z,99784.78
2023-10-31T01:54:19.871Z,99790.75
2023-10-31T01:56:52.080Z,99782.69
2023-10-31T01:59:20.336Z,99787.78
2023-10-31T02:01:48.938Z,99779.84
2023-10-31T02:04:17.189Z,99785.97
2023-10-31T02:06:45.434Z,99787.94
2023-10-31T02:09:13.662Z,99779.03
2023-10-31T02:11:41.844Z,99783.41
2023-10-31T02:14:10.076Z,99784.13
2023-10-31T02:16:38.324Z,99784.84
2023-10-31T02:19:06.911Z,99790.25
2023-10-31T02:21:35.565Z,99787.28
2023-10-31T02:24:04.960Z,99782.84
2023-10-31T02:26:34.171Z,99787.41
2023-10-31T02:29:04.002Z,99789.25
2023-10-31T02:31:32.531Z,99780.16
2023-10-31T02:34:00.745Z,99788.97
2023-10-31T02:36:29.003Z,99789.09
2023-10-31T02:38:57.190Z,99787.56
2023-10-31T02:41:25.366Z,99788.53
2023-10-31T02:43:56.484Z,99795.63
2023-10-31T02:46:24.861Z,99793.78
2023-10-31T02:48:53.122Z,99803.56
2023-10-31T02:51:21.700Z,99801.03
2023-10-31T02:53:49.873Z,99803.00
2023-10-31T02:56:18.140Z,99805.56
2023-10-31T02:58:47.021Z,99808.38
2023-10-31T03:01:15.335Z,99805.69
2023-10-31T03:03:43.663Z,99820.03
2023-10-31T03:06:11.886Z,99815.47
2023-10-31T03:08:40.089Z,99814.75
2023-10-31T03:11:09.280Z,99810.34
2023-10-31T03:13:37.529Z,99822.13
2023-10-31T03:16:05.763Z,99824.69
2023-10-31T03:18:33.944Z,99829.34
2023-10-31T03:21:02.409Z,99835.59
2023-10-31T03:23:30.586Z,99836.44
2023-10-31T03:25:58.919Z,99838.97
2023-10-31T03:28:27.144Z,99847.06
2023-10-31T03:30:55.439Z,99855.88
2023-10-31T03:33:25.228Z,99862.13
2023-10-31T03:35:53.429Z,99868.38
2023-10-31T03:38:21.701Z,99864.69
2023-10-31T03:40:49.974Z,99870.94
2023-10-31T03:43:18.180Z,99879.97
2023-10-31T03:45:47.373Z,99880.84
2023-10-31T03:48:16.037Z,99877.28
2023-10-31T03:50:44.651Z,99887.25
2023-10-31T03:53:12.846Z,99893.59
2023-10-31T03:55:41.110Z,99904.38
2023-10-31T03:58:09.355Z,99903.25
2023-10-31T04:00:37.641Z,99903.41
2023-10-31T04:03:05.929Z,99914.31
2023-10-31T04:05:34.140Z,99909.03
2023-10-31T04:08:02.590Z,99915.41
2023-10-31T04:10:30.785Z,99909.16
2023-10-31T04:12:58.996Z,99916.56
2023-10-31T04:15:27.163Z,99917.66
2023-10-31T04:17:55.439Z,99918.66
2023-10-31T04:20:23.792Z,99923.16
2023-10-31T04:22:52.096Z,99920.88
2023-10-31T04:25:20.423Z,99930.06
2023-10-31T04:27:48.603Z,99930.06
2023-10-31T04:30:17.377Z,99936.56
2023-10-31T04:32:45.715Z,99934.84
2023-10-31T04:35:14.047Z,99930.47
2023-10-31T04:37:42.356Z,99933.16
2023-10-31T04:40:11.593Z,99940.38
2023-10-31T04:42:42.067Z,99935.97
2023-10-31T04:45:10.784Z,99941.38
2023-10-31T04:47:39.111Z,99939.50
2023-10-31T04:50:07.665Z,99950.19
2023-10-31T04:52:35.921Z,99951.00
2023-10-31T04:55:04.438Z,99943.78
2023-10-31T04:57:32.974Z,99938.69
2023-10-31T05:00:01.273Z,99955.09
2023-10-31T05:02:30.020Z,99950.06
2023-10-31T05:04:59.428Z,99952.78
2023-10-31T05:07:27.681Z,99944.69
2023-10-31T05:09:55.841Z,99948.38
2023-10-31T05:12:23.993Z,99961.97
2023-10-31T05:14:52.199Z,99956.72
2023-10-31T05:17:21.110Z,99966.91
2023-10-31T05:19:50.398Z,99970.31
2023-10-31T05:22:18.602Z,99974.09
2023-10-31T05:24:46.805Z,99979.38
2023-10-31T05:27:15.065Z,99972.63
2023-10-31T05:29:43.401Z,99979.88
2023-10-31T05:32:11.621Z,99981.72
2023-10-31T05:34:39.858Z,99979.16
2023-10-31T05:37:08.149Z,99986.50
2023-10-31T05:39:38.082Z,99990.31
2023-10-31T05:42:06.299Z,100002.03
2023-10-31T05:44:34.489Z,100005.59
2023-10-31T05:47:02.747Z,100006.69
2023-10-31T05:49:31.507Z,100006.94
2023-10-31T05:51:59.774Z,100012.06
2023-10-31T05:54:27.987Z,100012.34
2023-10-31T05:56:56.203Z,100014.06
2023-10-31T05:59:24.439Z,100015.03
2023-10-31T06:01:52.744Z,100005.25
2023-10-31T06:04:21.020Z,100014.41
2023-10-31T06:06:49.184Z,100009.91
2023-10-31T06:09:17.428Z,100015.28
2023-10-31T06:11:45.989Z,100025.06
2023-10-31T06:14:14.302Z,100022.38
2023-10-31T06:16:43.551Z,100032.31
2023-10-31T06:19:12.455Z,100027.75
2023-10-31T06:21:41.217Z,100030.56
2023-10-31T06:24:09.808Z,100034.38
2023-10-31T06:26:38.093Z,100040.75
2023-10-31T06:29:27.389Z,100035.38
2023-10-31T06:31:54.536Z,100039.03
2023-10-31T06:34:22.829Z,100046.97
2023-10-31T06:36:51.124Z,100050.53
2023-10-31T06:39:19.452Z,100051.41
2023-10-31T06:41:47.624Z,100053.22
2023-10-31T06:44:15.849Z,100052.09
2023-10-31T06:46:44.205Z,100055.78
2023-10-31T06:49:12.469Z,100063.00
2023-10-31T06:51:40.768Z,100061.44
2023-10-31T06:54:09.077Z,100073.06
2023-10-31T06:56:37.326Z,100072.94
2023-10-31T06:59:06.706Z,100071.69
2023-10-31T07:01:35.003Z,100073.41
2023-10-31T07:04:03.279Z,100072.53
2023-10-31T07:06:31.488Z,100071.56
2023-10-31T07:09:01.647Z,100078.91
2023-10-31T07:11:33.504Z,100085.13
2023-10-31T07:14:03.747Z,100081.50
2023-10-31T07:16:34.767Z,100082.31
2023-10-31T07:19:02.966Z,100088.44
2023-10-31T07:21:31.194Z,100093.56
2023-10-31T07:23:59.427Z,100093.22
2023-10-31T07:26:28.802Z,100101.41
2023-10-31T07:28:57.164Z,100100.63
2023-10-31T07:31:25.361Z,100102.44
2023-10-31T07:33:53.618Z,100119.69
2023-10-31T07:36:21.830Z,100103.41
2023-10-31T07:38:50.229Z,100118.59
2023-10-31T07:41:18.534Z,100117.00
2023-10-31T07:43:46.782Z,100120.91
2023-10-31T07:46:15.065Z,100119.34
2023-10-31T07:48:43.345Z,100123.72
2023-10-31T07:51:11.568Z,100119.22
2023-10-31T07:53:39.748Z,100122.13
2023-10-31T07:56:17.194Z,100125.16
2023-10-31T07:58:45.474Z,100131.63
2023-10-31T08:01:13.987Z,100134.06
2023-10-31T08:03:42.284Z,100128.31
2023-10-31T08:06:10.464Z,100132.44
2023-10-31T08:08:38.627Z,100140.66
2023-10-31T08:11:10.845Z,100141.94
2023-10-31T08:13:39.709Z,100143.88
2023-10-31T08:16:08.972Z,100139.84
2023-10-31T08:18:37.691Z,100142.53
2023-10-31T08:21:06.185Z,100141.06
2023-10-31T08:23:35.098Z,100140.03
2023-10-31T08:26:03.367Z,100147.94
2023-10-31T08:28:32.037Z,100145.66
2023-10-31T08:31:00.327Z,100148.47
2023-10-31T08:33:28.645Z,100143.69
2023-10-31T08:35:56.937Z,100144.66
2023-10-31T08:38:29.753Z,100155.63
2023-10-31T08:41:01.059Z,100153.59
2023-10-31T08:43:28.953Z,100161.25
2023-10-31T08:45:57.107Z,100154.69
2023-10-31T08:48:26.059Z,100156.56
2023-10-31T08:50:54.321Z,100163.88
2023-10-31T08:53:22.624Z,100157.41
2023-10-31T08:55:50.890Z,100161.88
2023-10-31T08:58:19.640Z,100164.19
2023-10-31T09:00:47.955Z,100173.28
2023-10-31T09:03:16.326Z,100177.44
2023-10-31T09:05:45.391Z,100182.38
2023-10-31T09:08:13.413Z,100191.56
2023-10-31T09:10:43.893Z,100188.56
2023-10-31T09:13:12.267Z,100207.88
2023-10-31T09:15:40.657Z,100192.75
2023-10-31T09:18:09.089Z,100191.81
2023-10-31T09:20:37.400Z,100203.50
2023-10-31T09:23:06.172Z,100210.28
2023-10-31T09:25:34.388Z,100210.94
2023-10-31T09:28:02.958Z,100212.28
2023-10-31T09:30:31.201Z,100220.69
2023-10-31T09:33:00.201Z,100220.03
2023-10-31T09:35:28.686Z,100218.47
2023-10-31T09:37:57.749Z,100223.38
2023-10-31T09:40:25.984Z,100227.38
2023-10-31T09:42:54.221Z,100217.00
2023-10-31T09:45:22.528Z,100212.69
2023-10-31T09:47:50.792Z,100216.88
2023-10-31T09:50:19.124Z,100228.97
2023-10-31T09:52:48.353Z,100229.25
2023-10-31T09:55:17.244Z,100243.63
2023-10-31T09:57:45.535Z,100234.06
2023-10-31T10:00:14.065Z,100238.69
2023-10-31T10:02:42.754Z,100246.22
2023-10-31T10:05:12.983Z,100243.56
2023-10-31T10:07:45.152Z,100240.34
2023-10-31T10:10:14.350Z,100252.22
2023-10-31T10:12:45.845Z,100248.94
2023-10-31T10:15:14.101Z,100255.25
2023-10-31T10:17:51.510Z,100256.16
2023-10-31T10:20:20.011Z,100250.47
2023-10-31T10:22:48.508Z,100254.94
2023-10-31T10:25:20.078Z,100264.22
2023-10-31T10:27:48.920Z,100272.50
2023-10-31T10:30:18.076Z,100279.13
2023-10-31T10:32:46.361Z,100273.19
2023-10-31T10:35:16.592Z,100271.66
2023-10-31T10:37:48.008Z,100259.34
2023-10-31T10:40:18.128Z,100251.34
2023-10-31T10:42:52.326Z,100261.03
2023-10-31T10:45:22.163Z,100268.22
2023-10-31T10:47:52.808Z,100273.69
2023-10-31T10:50:23.255Z,100276.09
2023-10-31T10:53:02.333Z,100277.97
2023-10-31T10:55:36.279Z,100277.22
2023-10-31T10:58:13.680Z,100283.88
2023-10-31T11:00:42.893Z,100283.06
2023-10-31T11:03:12.112Z,100275.34
2023-10-31T11:05:40.508Z,100275.25
2023-10-31T11:08:09.429Z,100272.75
2023-10-31T11:10:38.251Z,100279.13
2023-10-31T11:13:06.481Z,100279.34
2023-10-31T11:15:35.263Z,100280.59
2023-10-31T11:18:04.650Z,100280.53
2023-10-31T11:20:33.439Z,100289.75
2023-10-31T11:23:07.737Z,100289.59
2023-10-31T11:25:45.037Z,100287.19
2023-10-31T11:28:14.315Z,100289.16
2023-10-31T11:30:44.559Z,100298.28
2023-10-31T11:33:17.235Z,100297.22
2023-10-31T11:35:48.413Z,100303.34
2023-10-31T11:38:16.693Z,100301.13
2023-10-31T11:40:50.965Z,100302.16
2023-10-31T11:43:19.205Z,100309.75
2023-10-31T11:45:49.283Z,100295.66
2023-10-31T11:48:18.107Z,100318.34
2023-10-31T11:50:45.933Z,100310.38
2023-10-31T11:53:18.003Z,100313.94
2023-10-31T11:55:48.439Z,100310.38
2023-10-31T11:58:27.031Z,100321.34
2023-10-31T12:01:04.602Z,100318.34
2023-10-31T12:03:43.503Z,100319.50
2023-10-31T12:06:12.530Z,100318.63
2023-10-31T12:08:43.029Z,100323.34
2023-10-31T12:11:17.376Z,100327.59
2023-10-31T12:14:03.184Z,100318.34
2023-10-31T12:16:33.165Z,100324.19
2023-10-31T12:19:06.688Z,100337.91
2023-10-31T12:21:49.179Z,100334.59
2023-10-31T12:24:19.951Z,100330.47
2023-10-31T12:26:48.573Z,100335.31
2023-10-31T12:29:21.279Z,100344.16
2023-10-31T12:31:53.506Z,100341.00
2023-10-31T12:34:24.443Z,100349.81
2023-10-31T12:36:54.732Z,100354.34
2023-10-31T12:39:28.048Z,100357.91
2023-10-31T12:41:58.209Z,100363.03
2023-10-31T12:44:29.250Z,100363.19
2023-10-31T12:46:58.268Z,100366.75
2023-10-31T12:49:27.730Z,100364.94
2023-10-31T12:52:06.375Z,100378.19
2023-10-31T12:54:37.364Z,100378.63
2023-10-31T12:57:09.524Z,100378.47
2023-10-31T12:59:40.571Z,100374.63
2023-10-31T13:02:09.929Z,100375.03
2023-10-31T13:04:38.682Z,100374.31
2023-10-31T13:07:09.384Z,100380.13
2023-10-31T13:09:43.877Z,100378.97
2023-10-31T13:12:12.686Z,100379.25
2023-10-31T13:14:41.395Z,100374.97
2023-10-31T13:17:09.695Z,100374.66
2023-10-31T13:19:37.945Z,100377.22
2023-10-31T13:22:06.185Z,100373.94
2023-10-31T13:24:34.582Z,100374.38
2023-10-31T13:27:04.266Z,100381.81
2023-10-31T13:29:32.546Z,100375.66
2023-10-31T13:32:00.878Z,100372.22
2023-10-31T13:34:33.012Z,100376.53
2023-10-31T13:37:01.421Z,100386.19
2023-10-31T13:39:29.662Z,100388.50
2023-10-31T13:41:58.017Z,100388.19
2023-10-31T13:44:26.274Z,100389.19
2023-10-31T13:46:54.553Z,100396.84
2023-10-31T13:49:22.867Z,100379.31
2023-10-31T13:51:51.120Z,100387.13
2023-10-31T13:54:20.506Z,100391.94
2023-10-31T13:56:49.248Z,100389.78
2023-10-31T13:59:19.449Z,100398.56
2023-10-31T14:01:48.776Z,100398.66
2023-10-31T14:04:17.450Z,100404.47
2023-10-31T14:06:45.812Z,100403.59
2023-10-31T14:09:14.179Z,100404.06
2023-10-31T14:11:43.121Z,100412.50
2023-10-31T14:14:11.878Z,100415.66
2023-10-31T14:16:40.478Z,100417.47
2023-10-31T14:19:09.603Z,100413.53
2023-10-31T14:21:38.163Z,100417.81
2023-10-31T14:24:11.174Z,100418.66
2023-10-31T14:26:44.565Z,100423.47
2023-10-31T14:29:13.439Z,100422.16
2023-10-31T14:31:45.362Z,100423.03
2023-10-31T14:34:13.627Z,100419.47
2023-10-31T14:36:42.072Z,100421.47
2023-10-31T14:39:13.091Z,100427.00
2023-10-31T14:41:41.909Z,100424.31
2023-10-31T14:44:10.268Z,100421.69
2023-10-31T14:46:38.801Z,100432.53
2023-10-31T14:49:07.112Z,100434.66
2023-10-31T14:51:35.370Z,100440.56
2023-10-31T14:54:03.749Z,100449.34
2023-10-31T14:56:32.885Z,100446.53
2023-10-31T14:59:01.180Z,100451.13
2023-10-31T15:01:29.645Z,100445.88
2023-10-31T15:03:58.087Z,100443.84
2023-10-31T15:06:26.546Z,100446.66
2023-10-31T15:08:54.798Z,100457.22
2023-10-31T15:11:24.422Z,100456.19
2023-10-31T15:13:52.761Z,100461.00
2023-10-31T15:16:21.008Z,100459.50
2023-10-31T15:18:49.389Z,100461.34
2023-10-31T15:21:17.679Z,100457.06
2023-10-31T15:23:45.874Z,100456.47
2023-10-31T15:26:14.831Z,100461.25
2023-10-31T15:28:44.115Z,100464.47
2023-10-31T15:31:13.017Z,100463.25
2023-10-31T15:33:44.398Z,100470.50
2023-10-31T15:36:13.833Z,100468.06
2023-10-31T15:38:42.641Z,100471.50
2023-10-31T15:41:17.022Z,100474.44
2023-10-31T15:43:47.306Z,100481.06
2023-10-31T15:46:15.783Z,100487.47
2023-10-31T15:48:44.119Z,100491.00
2023-10-31T15:51:12.553Z,100498.97
2023-10-31T15:53:40.876Z,100486.34
2023-10-31T15:56:11.231Z,100485.94
2023-10-31T15:58:39.959Z,100493.69
2023-10-31T16:01:08.364Z,100485.00
2023-10-31T16:03:36.860Z,100485.25
2023-10-31T16:06:05.791Z,100485.59
2023-10-31T16:08:34.199Z,100494.44
2023-10-31T16:11:02.454Z,100488.69
2023-10-31T16:13:30.688Z,100488.94
2023-10-31T16:15:59.059Z,100480.09
2023-10-31T16:18:27.420Z,100486.63
2023-10-31T16:20:55.651Z,100498.38
2023-10-31T16:23:24.870Z,100500.13
2023-10-31T16:25:53.099Z,100496.94
2023-10-31T16:28:21.284Z,100502.19
2023-10-31T16:30:49.550Z,100499.38
2023-10-31T16:33:18.039Z,100505.03
2023-10-31T16:35:46.390Z,100502.53
2023-10-31T16:38:14.695Z,100511.25
2023-10-31T16:40:42.881Z,100512.13
2023-10-31T16:43:11.057Z,100505.88
2023-10-31T16:45:39.238Z,100517.53
2023-10-31T16:48:07.730Z,100526.50
2023-10-31T16:50:36.014Z,100522.91
2023-10-31T16:53:07.508Z,100536.03
2023-10-31T16:55:35.837Z,100537.78
2023-10-31T16:58:05.946Z,100532.38
2023-10-31T17:00:34.156Z,100536.53
2023-10-31T17:03:02.928Z,100543.78
2023-10-31T17:05:31.277Z,100544.75
2023-10-31T17:07:59.568Z,100542.19
2023-10-31T17:10:27.778Z,100542.81
2023-10-31T17:13:01.760Z,100539.13
2023-10-31T17:15:29.937Z,100548.41
2023-10-31T17:17:58.392Z,100542.41
2023-10-31T17:20:27.231Z,100547.72
2023-10-31T17:22:55.336Z,100546.22
2023-10-31T17:25:23.511Z,100551.00
2023-10-31T17:27:51.781Z,100562.91
2023-10-31T17:30:20.074Z,100558.59
2023-10-31T17:32:48.427Z,100556.66
2023-10-31T17:35:18.039Z,100559.97
2023-10-31T17:37:47.009Z,100565.50
2023-10-31T17:40:15.410Z,100566.31
2023-10-31T17:42:43.575Z,100569.28
2023-10-31T17:45:12.881Z,100571.00
2023-10-31T17:47:41.236Z,100571.22
2023-10-31T17:50:10.658Z,100558.72
2023-10-31T17:52:39.174Z,100565.94
2023-10-31T17:55:07.570Z,100559.22
2023-10-31T17:57:36.868Z,100569.28
2023-10-31T18:00:05.545Z,100572.84
2023-10-31T18:02:40.365Z,100569.28
2023-10-31T18:05:10.291Z,100566.81
2023-10-31T18:07:39.461Z,100566.81
2023-10-31T18:10:08.152Z,100574.66
2023-10-31T18:12:36.888Z,100573.22
2023-10-31T18:15:05.506Z,100562.75
2023-10-31T18:17:34.689Z,100571.09
2023-10-31T18:20:03.125Z,100563.13
2023-10-31T18:22:31.301Z,100563.75
2023-10-31T18:24:59.512Z,100560.19
2023-10-31T18:27:27.754Z,100566.69
2023-10-31T18:29:56.692Z,100570.34
2023-10-31T18:32:24.645Z,100567.16
2023-10-31T18:34:53.351Z,100570.97
2023-10-31T18:37:21.596Z,100560.53
2023-10-31T18:39:49.835Z,100560.75
2023-10-31T18:42:19.430Z,100552.78
2023-10-31T18:44:52.520Z,100557.66
2023-10-31T18:47:24.882Z,100549.91
2023-10-31T18:49:53.283Z,100544.91
2023-10-31T18:52:21.532Z,100540.34
2023-10-31T18:54:49.727Z,100544.03
2023-10-31T18:57:17.970Z,100539.63
2023-10-31T18:59:46.270Z,100532.25
2023-10-31T19:02:15.532Z,100533.75
2023-10-31T19:04:44.016Z,100538.03
2023-10-31T19:07:12.413Z,100541.59
2023-10-31T19:09:40.655Z,100539.63
2023-10-31T19:12:09.272Z,100542.97
2023-10-31T19:14:37.556Z,100538.47
2023-10-31T19:17:05.914Z,100536.47
2023-10-31T19:19:34.141Z,100537.22
2023-10-31T19:22:02.540Z,100533.06
2023-10-31T19:24:30.774Z,100523.22
2023-10-31T19:26:59.024Z,100515.50
2023-10-31T19:29:27.584Z,100510.47
2023-10-31T19:31:55.874Z,100501.63
2023-10-31T19:34:24.200Z,100501.38
2023-10-31T19:36:52.521Z,100509.09
2023-10-31T19:39:22.476Z,100509.72
2023-10-31T19:41:50.747Z,100499.72
2023-10-31T19:44:19.425Z,100510.13
2023-10-31T19:46:49.834Z,100509.91
2023-10-31T19:49:18.164Z,100511.63
2023-10-31T19:51:46.377Z,100504.28
2023-10-31T19:54:14.607Z,100513.69
2023-10-31T19:56:45.973Z,100502.69
2023-10-31T19:59:15.847Z,100498.88
2023-10-31T20:01:44.197Z,100496.06
2023-10-31T20:04:12.862Z,100498.75
2023-10-31T20:06:42.788Z,100495.94
2023-10-31T20:09:10.975Z,100506.72
2023-10-31T20:11:39.309Z,100488.84
2023-10-31T20:14:07.695Z,100488.72
2023-10-31T20:16:35.976Z,100470.69
2023-10-31T20:19:06.254Z,100467.13
2023-10-31T20:21:34.512Z,100453.38
2023-10-31T20:24:03.478Z,100454.88
2023-10-31T20:26:31.538Z,100451.19
2023-10-31T20:28:59.763Z,100473.63
2023-10-31T20:31:27.937Z,100465.28
2023-10-31T20:33:56.347Z,100452.66
2023-10-31T20:36:24.665Z,100452.78
2023-10-31T20:38:52.864Z,100467.97
2023-10-31T20:41:22.515Z,100478.78
2023-10-31T20:43:50.813Z,100486.75
2023-10-31T20:46:19.079Z,100495.22
2023-10-31T20:48:47.359Z,100500.00
2023-10-31T20:51:15.593Z,100499.25
2023-10-31T20:53:44.076Z,100489.56
2023-10-31T20:56:12.333Z,100515.69
2023-10-31T20:58:40.594Z,100520.09
2023-10-31T21:01:10.041Z,100501.22
2023-10-31T21:03:38.493Z,100511.38
2023-10-31T21:06:07.029Z,100518.75
2023-10-31T21:08:35.374Z,100529.66
2023-10-31T21:11:03.750Z,100526.84
2023-10-31T21:13:32.073Z,100515.19
2023-10-31T21:16:00.683Z,100518.97
2023-10-31T21:18:29.010Z,100526.34
2023-10-31T21:20:57.211Z,100543.25
2023-10-31T21:23:25.514Z,100556.16
2023-10-31T21:25:55.637Z,100552.59
2023-10-31T21:28:23.850Z,100512.72
2023-10-31T21:30:54.099Z,100512.59
2023-10-31T21:33:24.703Z,100514.91
2023-10-31T21:35:54.165Z,100521.16
2023-10-31T21:38:22.433Z,100510.25
2023-10-31T21:40:50.722Z,100502.41
2023-10-31T21:43:18.965Z,100505.88
2023-10-31T21:45:47.270Z,100507.91
2023-10-31T21:48:15.566Z,100501.66
2023-10-31T21:50:43.830Z,100500.28
2023-10-31T21:53:12.081Z,100485.72
2023-10-31T21:55:40.452Z,100516.38
2023-10-31T21:58:08.704Z,100516.00
2023-10-31T22:00:36.967Z,100513.66
2023-10-31T22:03:05.463Z,100510.34
2023-10-31T22:05:34.018Z,100521.97
2023-10-31T22:08:02.231Z,100505.91
2023-10-31T22:10:30.482Z,100505.78
2023-10-31T22:12:58.659Z,100512.81
2023-10-31T22:15:26.844Z,100525.16
2023-10-31T22:17:55.041Z,100520.44
2023-10-31T22:20:23.239Z,100524.88
2023-10-31T22:22:51.735Z,100526.56
2023-10-31T22:25:20.005Z,100533.66
2023-10-31T22:27:48.947Z,100534.53
2023-10-31T22:30:17.897Z,100524.63
2023-10-31T22:32:45.807Z,100528.53
2023-10-31T22:35:14.130Z,100524.00
2023-10-31T22:37:42.324Z,100520.94
2023-10-31T22:40:11.008Z,100517.53
2023-10-31T22:42:39.193Z,100517.41
2023-10-31T22:45:08.068Z,100520.97
2023-10-31T22:47:40.498Z,100520.72
2023-10-31T22:50:11.756Z,100523.16
2023-10-31T22:52:40.047Z,100522.91
2023-10-31T22:55:09.355Z,100528.06
2023-10-31T22:57:37.618Z,100537.75
2023-10-31T23:00:11.637Z,100528.56
2023-10-31T23:02:41.353Z,100525.63
2023-10-31T23:05:12.031Z,100526.22
2023-10-31T23:07:40.514Z,100513.72
2023-10-31T23:10:08.986Z,100517.28
2023-10-31T23:12:37.303Z,100514.59
2023-10-31T23:15:12.426Z,100514.59
2023-10-31T23:17:42.571Z,100515.44
2023-10-31T23:20:12.915Z,100520.72
2023-10-31T23:22:42.947Z,100518.03
2023-10-31T23:25:11.941Z,100516.16
2023-10-31T23:27:43.006Z,100505.25
2023-10-31T23:30:11.684Z,100502.41
2023-10-31T23:32:40.060Z,100507.72
2023-10-31T23:35:08.803Z,100496.94
2023-10-31T23:37:37.182Z,100505.88
2023-10-31T23:40:06.201Z,100503.16
2023-10-31T23:42:34.072Z,100491.75
2023-10-31T23:45:02.325Z,100490.19
2023-10-31T23:47:31.018Z,100488.81
2023-10-31T23:49:59.691Z,100488.19
2023-10-31T23:52:29.045Z,100484.66
2023-10-31T23:54:57.363Z,100475.72
2023-10-31T23:57:25.589Z,100478.53
2023-10-31T23:59:53.827Z,100464.91
